Flight Track Log - Related Links

Times and Time Zones

All times are in EDT time to prevent confusion due to time zone crossing. See the WIG1043 flight status page for this flight to view local times or setup timezone preferences in your user account.

Time Position Orientation Groundspeed Altitude Reporting Facility
EDT Latitude Longitude Course Direction KTS MPH feet Rate Location/Type
Tue 07:41:16 PM 44.7378 -68.7633 224° Southwest 154 177 3,800  Level Boston Center
Tue 07:42:16 PM 44.6875 -68.7561 174° South 193 222 3,900 98 Climbing Boston Center
Tue 07:44:19 PM 44.6181 -68.8642 228° Southwest 189 217 4,100 65 Climbing Boston Center
Tue 07:45:21 PM 44.5850 -68.9186 230° Southwest 185 213 4,100  Level Boston Center
Tue 07:46:00 PM 44.6111 -69.1041 224° Southwest  Level FlightAware Approximate
Tue 07:46:22 PM 44.5506 -68.9711 227° Southwest 185 213 4,100  Level Boston Center
Tue 07:48:23 PM 44.4764 -69.0906 229° Southwest 185 213 4,100  Level Boston Center
Tue 07:50:25 PM 44.4075 -69.2003 229° Southwest 185 213 4,100  Level Boston Center
Tue 07:51:27 PM 44.3733 -69.2544 229° Southwest 185 213 4,100  Level Boston Center
Tue 07:52:27 PM 44.3381 -69.3108 229° Southwest 185 213 4,100  Level Boston Center
Tue 07:55:31 PM 44.2303 -69.4803 237° Southwest 192 221 4,100 -24 Level Boston Center
Tue 07:56:33 PM 44.1928 -69.5369 227° Southwest 192 221 4,000 -49 Descending Boston Center
Tue 07:57:34 PM 44.1469 -69.5981 224° Southwest 206 237 4,000 -49 Level Boston Center
Tue 07:58:36 PM 44.1133 -69.6597 233° Southwest 202 232 3,900 -49 Descending Boston Center
Tue 07:59:37 PM 44.0792 -69.7189 231° Southwest 201 231 3,900  Level Boston Center
Tue 08:00:38 PM 44.0367 -69.7778 225° Southwest 200 230 3,900  Level Boston Center
Tue 08:01:00 PM 44.1453 -69.7012 237° Southwest  Level FlightAware Approximate
Tue 08:01:40 PM 43.9994 -69.8322 226° Southwest 196 226 3,900  Level Boston Center
Tue 08:02:41 PM 43.9675 -69.8894 232° Southwest 190 219 4,000 49 Climbing Boston Center
Tue 08:03:42 PM 43.9319 -69.9436 228° Southwest 190 219 4,000  Level Boston Center
Tue 08:04:43 PM 43.8919 -70.0003 226° Southwest 191 220 4,000  Level Boston Center
Tue 08:05:44 PM 43.8564 -70.0519 226° Southwest 189 217 4,000  Level Boston Center
Tue 08:06:45 PM 43.8233 -70.1072 230° Southwest 187 215 4,000  Level Boston Center
Tue 08:08:48 PM 43.7514 -70.2153 229° Southwest 187 215 4,000  Level Boston Center
Tue 08:09:49 PM 43.7156 -70.2686 227° Southwest 188 216 4,000  Level Boston Center
Tue 08:10:50 PM 43.6800 -70.3272 230° Southwest 187 215 4,000  Level Boston Center
Tue 08:11:51 PM 43.6456 -70.3794 228° Southwest 186 214 4,000  Level Boston Center
Tue 08:12:52 PM 43.6106 -70.4311 227° Southwest 186 214 4,000  Level Boston Center
Tue 08:13:53 PM 43.5747 -70.4825 226° Southwest 186 214 4,000  Level Boston Center
Tue 08:14:53 PM 43.5403 -70.5344 228° Southwest 185 213 4,000 -33 Level Boston Center
Tue 08:16:57 PM 43.4706 -70.6417 228° Southwest 183 211 3,900 -32 Descending Boston Center
Tue 08:17:58 PM 43.4358 -70.6914 226° Southwest 182 209 3,900  Level Boston Center
Tue 08:18:59 PM 43.4006 -70.7411 226° Southwest 182 209 3,900  Level Boston Center
Tue 08:19:59 PM 43.3650 -70.7967 229° Southwest 182 209 3,900  Level Boston Center
Tue 08:21:00 PM 43.3322 -70.8478 229° Southwest 181 208 3,900  Level Boston Center
Tue 08:22:00 PM 43.2983 -70.8994 228° Southwest 180 207 3,900  Level Boston Center
Tue 08:23:01 PM 43.2633 -70.9492 226° Southwest 181 208 3,900  Level Boston Center
Tue 08:24:04 PM 43.2267 -71.0017 226° Southwest 181 208 3,900  Level Boston Center
Tue 08:25:05 PM 43.1942 -71.0528 229° Southwest 180 207 3,900  Level Boston Center
Tue 08:26:05 PM 43.1628 -71.1039 230° Southwest 179 206 3,900  Level Boston Center
Tue 08:27:05 PM 43.1300 -71.1558 229° Southwest 179 206 3,900 50 Level Boston Center
Tue 08:28:06 PM 43.0944 -71.2106 228° Southwest 179 206 4,000 -48 Climbing Boston Center
Tue 08:29:10 PM 43.0622 -71.2631 230° Southwest 179 206 3,800 -708 Descending Boston Center
Tue 08:30:47 PM 43.0167 -71.3500 234° Southwest 163 188 2,100 -829 Descending KA90
Tue 08:32:11 PM 42.9736 -71.3922 216° Southwest 115 132 1,300 -621 Descending Boston Center
Tue 08:33:12 PM 42.9536 -71.4169 222° Southwest 101 116 600 -439 Descending Boston Center
Tue 08:34:14 PM 42.9364 -71.4383 222° Southwest 101 116 400 -194 Descending Boston Center
Tue 08:36:00 PM 42.9328 -71.4358 222° Southwest  Level Estimated

Login

Don't have an account? Register now (free) for customized features, flight alerts, and more!